Time;durP1;ratioP1;P1;durP2;ratioP2;P2;SDS_P1;SDS_P2;PMS_P1;PMS_P2;Temp;Humidity;BMP_temperature;BMP_pressure;BME280_temperature;BME280_humidity;BME280_pressure;Samples;Min_cycle;Max_cycle;Signal;HPM_P1;HPM_P2
2024/01/07 00:00:38;;;;;;;;;;;;;;;2.77;86.71;100038.53;4981681;28;19937;-83
2024/01/07 00:03:05;;;;;;;;;;;;;;;2.78;86.59;100037.69;4980350;28;19930;-85
2024/01/07 00:05:31;;;;;;;;;;;;;;;2.75;86.27;100037.66;4989295;28;19929;-88
2024/01/07 00:08:00;;;;;;;;;;;;;;;2.77;86.64;100038.53;4987550;28;19940;-83
2024/01/07 00:10:27;;;;;;;;;;;;;;;2.80;86.81;100036.84;4988255;28;19930;-86
2024/01/07 00:12:53;;;;;;;;;;;;;;;2.80;86.38;100044.63;4987604;28;20056;-85
2024/01/07 00:15:20;;;;;;;;;;;;;;;2.81;86.51;100041.16;4978432;28;19934;-83
2024/01/07 00:17:47;;;;;;;;;;;;;;;2.77;86.45;100042.84;4981229;28;19952;-82
2024/01/07 00:20:14;;;;;;;;;;;;;;;2.75;86.34;100044.53;4987080;28;19944;-85
2024/01/07 00:22:40;;;;;;;;;;;;;;;2.78;86.18;100048.03;4987930;28;19930;-83
2024/01/07 00:25:07;;;;;;;;;;;;;;;2.80;86.28;100053.25;4979943;28;19936;-83
2024/01/07 00:27:34;;;;;;;;;;;;;;;2.78;86.00;100052.34;4987628;28;19951;-85
2024/01/07 00:30:01;;;;;;;;;;;;;;;2.78;86.26;100050.63;4984768;28;19949;-83
2024/01/07 00:32:28;;;;;;;;;;;;;;;2.76;86.01;100046.28;4983785;28;19930;-82
2024/01/07 00:34:54;;;;;;;;;;;;;;;2.78;86.21;100050.63;4986997;28;19930;-84
2024/01/07 00:37:22;;;;;;;;;;;;;;;2.74;86.22;100048.00;4987788;28;20040;-83
2024/01/07 00:39:48;;;;;;;;;;;;;;;2.75;85.89;100048.03;4988239;28;19936;-86
2024/01/07 00:42:15;;;;;;;;;;;;;;;2.76;86.09;100049.75;4983319;28;19930;-85
2024/01/07 00:44:41;;;;;;;;;;;;;;;2.75;85.79;100060.97;4983125;28;20014;-86
2024/01/07 00:47:08;;;;;;;;;;;;;;;2.75;85.52;100054.91;4997839;28;19964;-86
2024/01/07 00:49:35;;;;;;;;;;;;;;;2.75;85.71;100058.38;4986511;28;19936;-84
2024/01/07 00:52:01;;;;;;;;;;;;;;;2.78;85.60;100055.81;4987623;28;19929;-85
2024/01/07 00:54:28;;;;;;;;;;;;;;;2.78;85.60;100066.19;4987604;28;19934;-82
2024/01/07 00:56:55;;;;;;;;;;;;;;;2.74;85.71;100064.41;4987721;28;19988;-82
2024/01/07 00:59:21;;;;;;;;;;;;;;;2.73;85.62;100067.84;4987887;28;19940;-82
2024/01/07 01:01:48;;;;;;;;;;;;;;;2.74;85.45;100074.78;4987819;28;19930;-82
2024/01/07 01:04:15;;;;;;;;;;;;;;;2.77;85.30;100069.63;4988336;28;20001;-84
2024/01/07 01:06:42;;;;;;;;;;;;;;;2.74;85.05;100068.75;4981602;28;19965;-82
2024/01/07 01:09:08;;;;;;;;;;;;;;;2.77;85.37;100069.63;4979499;28;19929;-82
2024/01/07 01:11:35;;;;;;;;;;;;;;;2.78;85.39;100075.66;4985671;28;19930;-82
2024/01/07 01:14:02;;;;;;;;;;;;;;;2.80;85.50;100078.31;4981191;28;19997;-84
2024/01/07 01:16:29;;;;;;;;;;;;;;;2.77;85.57;100074.81;4981864;28;20288;-83
2024/01/07 01:18:55;;;;;;;;;;;;;;;2.76;85.27;100077.38;4984584;28;19937;-81
2024/01/07 01:21:22;;;;;;;;;;;;;;;2.75;85.06;100084.31;4990707;28;20258;-83
2024/01/07 01:23:49;;;;;;;;;;;;;;;2.76;85.01;100083.44;4991107;28;19930;-83
2024/01/07 01:26:15;;;;;;;;;;;;;;;2.78;85.28;100092.09;4989329;28;20365;-82
2024/01/07 01:28:42;;;;;;;;;;;;;;;2.77;85.57;100085.19;4990904;28;19937;-85
2024/01/07 01:31:12;;;;;;;;;;;;;;;2.74;85.50;100085.16;4991451;28;19925;-83
2024/01/07 01:33:39;;;;;;;;;;;;;;;2.75;85.62;100089.47;4987291;28;20297;-82
2024/01/07 01:36:06;;;;;;;;;;;;;;;2.76;85.64;100087.75;4987707;28;20012;-82
2024/01/07 01:38:32;;;;;;;;;;;;;;;2.73;85.51;100085.13;4973138;28;19936;-83
2024/01/07 01:40:59;;;;;;;;;;;;;;;2.73;85.29;100101.53;4991605;28;19929;-85
2024/01/07 01:43:26;;;;;;;;;;;;;;;2.71;85.57;100095.47;4988045;28;20021;-82
2024/01/07 01:45:53;;;;;;;;;;;;;;;2.72;85.54;100091.16;4988553;28;20380;-82
2024/01/07 01:48:20;;;;;;;;;;;;;;;2.73;85.28;100091.16;4990261;28;19926;-82
2024/01/07 01:50:47;;;;;;;;;;;;;;;2.72;85.11;100091.16;4989765;28;19936;-82
2024/01/07 01:53:17;;;;;;;;;;;;;;;2.71;85.09;100084.22;4990775;28;19940;-81
2024/01/07 01:55:43;;;;;;;;;;;;;;;2.72;85.20;100098.94;4989861;28;19936;-83
2024/01/07 01:58:11;;;;;;;;;;;;;;;2.71;84.57;100097.19;4990114;28;20366;-83
2024/01/07 02:00:37;;;;;;;;;;;;;;;2.70;84.50;100092.88;4986665;28;19929;-84
2024/01/07 02:03:04;;;;;;;;;;;;;;;2.68;84.76;100099.75;4983892;28;19930;-85
2024/01/07 02:05:31;;;;;;;;;;;;;;;2.69;84.64;100101.50;4985477;28;19934;-82
2024/01/07 02:07:58;;;;;;;;;;;;;;;2.68;84.80;100091.97;4991732;28;19936;-85
2024/01/07 02:10:25;;;;;;;;;;;;;;;2.66;84.71;100101.47;4985417;28;19936;-82
2024/01/07 02:12:52;;;;;;;;;;;;;;;2.67;84.80;100091.09;4992498;28;19934;-82
2024/01/07 02:15:20;;;;;;;;;;;;;;;2.64;84.72;100096.25;4987157;28;19930;-88
2024/01/07 02:17:46;;;;;;;;;;;;;;;2.66;85.00;100096.28;4982387;28;19941;-84
2024/01/07 02:20:13;;;;;;;;;;;;;;;2.65;84.71;100094.53;4994597;28;19930;-86
2024/01/07 02:22:40;;;;;;;;;;;;;;;2.61;84.82;100094.50;4974143;28;20124;-85
2024/01/07 02:25:08;;;;;;;;;;;;;;;2.63;84.70;100101.44;4991416;28;20017;-82
2024/01/07 02:27:35;;;;;;;;;;;;;;;2.61;84.59;100104.84;4989169;28;19930;-86
2024/01/07 02:30:02;;;;;;;;;;;;;;;2.61;85.04;100098.81;4987945;28;19933;-82
2024/01/07 02:32:32;;;;;;;;;;;;;;;2.61;85.23;100101.41;4989718;28;19957;-83
2024/01/07 02:34:59;;;;;;;;;;;;;;;2.63;84.69;100104.88;4980782;28;19933;-83
2024/01/07 02:37:25;;;;;;;;;;;;;;;2.61;84.81;100110.03;4990504;28;19929;-83
2024/01/07 02:39:52;;;;;;;;;;;;;;;2.62;85.02;100105.72;4988393;28;19963;-84
2024/01/07 02:42:27;;;;;;;;;;;;;;;2.61;85.27;100111.78;4989027;28;19933;-84
2024/01/07 02:44:53;;;;;;;;;;;;;;;2.60;85.05;100112.63;4985100;28;19934;-84
2024/01/07 02:47:20;;;;;;;;;;;;;;;2.59;85.10;100113.47;4999269;28;19930;-86
2024/01/07 02:49:47;;;;;;;;;;;;;;;2.60;85.01;100108.28;4977070;28;19933;-84
2024/01/07 02:52:13;;;;;;;;;;;;;;;2.59;85.10;100105.69;4991283;28;19930;-84
2024/01/07 02:54:40;;;;;;;;;;;;;;;2.58;85.15;100103.97;4989689;28;19929;-82
2024/01/07 02:57:07;;;;;;;;;;;;;;;2.59;85.06;100108.28;4983391;28;19945;-86
2024/01/07 02:59:34;;;;;;;;;;;;;;;2.58;84.98;100109.16;4987164;28;19930;-82
2024/01/07 03:02:00;;;;;;;;;;;;;;;2.56;85.31;100111.72;4988644;28;19936;-82
2024/01/07 03:04:27;;;;;;;;;;;;;;;2.54;84.84;100112.53;4978768;28;19930;-83
2024/01/07 03:06:53;;;;;;;;;;;;;;;2.51;85.38;100115.97;4986378;28;19926;-81
2024/01/07 03:09:21;;;;;;;;;;;;;;;2.53;85.30;100118.56;4989425;28;19930;-82
2024/01/07 03:11:47;;;;;;;;;;;;;;;2.51;85.40;100117.69;4988093;28;19930;-84
2024/01/07 03:14:16;;;;;;;;;;;;;;;2.50;85.35;100116.81;4998313;28;20012;-82
2024/01/07 03:16:43;;;;;;;;;;;;;;;2.49;85.28;100119.38;4986119;28;19929;-83
2024/01/07 03:19:10;;;;;;;;;;;;;;;2.46;85.16;100114.16;4987423;28;19937;-85
2024/01/07 03:21:36;;;;;;;;;;;;;;;2.47;85.11;100119.38;4988624;28;19929;-85
2024/01/07 03:24:03;;;;;;;;;;;;;;;2.46;85.25;100124.53;4989735;28;19929;-82
2024/01/07 03:26:32;;;;;;;;;;;;;;;2.45;85.28;100121.06;4990989;28;19930;-85
2024/01/07 03:28:59;;;;;;;;;;;;;;;2.47;85.17;100126.28;4988730;28;19937;-82
2024/01/07 03:31:26;;;;;;;;;;;;;;;2.47;85.24;100123.69;4990824;28;20027;-82
2024/01/07 03:33:53;;;;;;;;;;;;;;;2.46;85.32;100121.94;4995647;28;19929;-83
2024/01/07 03:36:20;;;;;;;;;;;;;;;2.46;85.10;100125.38;4987744;28;19930;-87
2024/01/07 03:38:46;;;;;;;;;;;;;;;2.47;85.03;100127.13;4989043;28;19936;-82
2024/01/07 03:41:17;;;;;;;;;;;;;;;2.42;85.04;100124.50;4990713;28;20005;-83
2024/01/07 03:43:44;;;;;;;;;;;;;;;2.44;84.91;100125.38;4988905;28;19929;-85
2024/01/07 03:46:11;;;;;;;;;;;;;;;2.43;84.99;100130.53;4990313;28;19961;-84
2024/01/07 03:48:38;;;;;;;;;;;;;;;2.43;85.28;100130.53;5005413;28;19930;-85
2024/01/07 03:51:05;;;;;;;;;;;;;;;2.46;84.97;100129.69;4990311;28;20004;-84
2024/01/07 03:53:32;;;;;;;;;;;;;;;2.46;84.89;100127.97;4991605;28;20280;-84
2024/01/07 03:55:58;;;;;;;;;;;;;;;2.46;85.19;100134.88;4990505;28;19930;-85
2024/01/07 03:58:25;;;;;;;;;;;;;;;2.46;85.29;100134.88;4989423;28;19930;-84
2024/01/07 04:00:52;;;;;;;;;;;;;;;2.44;85.13;100135.72;4993914;28;19936;-86
2024/01/07 04:03:19;;;;;;;;;;;;;;;2.45;85.36;100134.03;4996008;28;20024;-87
2024/01/07 04:05:46;;;;;;;;;;;;;;;2.45;85.26;100149.56;4994150;28;20392;-86
2024/01/07 04:08:15;;;;;;;;;;;;;;;2.45;85.40;100144.38;4990501;28;19930;-84
2024/01/07 04:10:42;;;;;;;;;;;;;;;2.44;85.30;100146.09;4985419;28;20274;-85
2024/01/07 04:13:09;;;;;;;;;;;;;;;2.43;85.55;100139.19;4988063;28;19996;-86
2024/01/07 04:15:35;;;;;;;;;;;;;;;2.46;85.44;100150.44;4981390;28;19930;-83
2024/01/07 04:18:03;;;;;;;;;;;;;;;2.44;85.04;100142.63;4989024;28;19936;-85
2024/01/07 04:20:30;;;;;;;;;;;;;;;2.46;85.22;100148.69;4987662;28;19949;-85
2024/01/07 04:22:57;;;;;;;;;;;;;;;2.46;85.06;100156.47;4981895;28;19929;-81
2024/01/07 04:25:24;;;;;;;;;;;;;;;2.44;85.06;100151.25;4982405;28;19930;-81
2024/01/07 04:27:51;;;;;;;;;;;;;;;2.46;85.34;100150.44;4990290;28;19937;-84
2024/01/07 04:30:17;;;;;;;;;;;;;;;2.44;85.21;100158.19;4987120;28;19930;-82
2024/01/07 04:32:44;;;;;;;;;;;;;;;2.43;85.29;100157.31;4989386;28;19934;-83
2024/01/07 04:35:11;;;;;;;;;;;;;;;2.42;85.10;100160.75;4986174;28;19956;-83
2024/01/07 04:37:37;;;;;;;;;;;;;;;2.43;84.75;100161.59;4984430;28;19929;-82
2024/01/07 04:40:04;;;;;;;;;;;;;;;2.43;85.36;100159.91;4988137;28;19933;-84
2024/01/07 04:42:31;;;;;;;;;;;;;;;2.42;85.23;100165.94;4988364;28;20012;-86
2024/01/07 04:44:58;;;;;;;;;;;;;;;2.39;85.31;100165.91;4987874;28;19930;-83
2024/01/07 04:47:26;;;;;;;;;;;;;;;2.43;85.38;100171.97;4990499;28;19925;-82
2024/01/07 04:49:53;;;;;;;;;;;;;;;2.41;85.52;100161.59;4987865;28;19926;-82
2024/01/07 04:52:21;;;;;;;;;;;;;;;2.41;85.24;100177.13;4992950;28;19930;-81
2024/01/07 04:54:47;;;;;;;;;;;;;;;2.40;85.49;100172.81;4992744;28;19926;-82
2024/01/07 04:57:14;;;;;;;;;;;;;;;2.39;85.05;100178.84;4993795;28;19952;-82
2024/01/07 04:59:41;;;;;;;;;;;;;;;2.41;85.13;100174.53;4998308;28;20373;-82
2024/01/07 05:02:08;;;;;;;;;;;;;;;2.38;85.38;100177.09;4996816;28;19930;-82
2024/01/07 05:04:35;;;;;;;;;;;;;;;2.41;85.29;100179.72;4993496;28;19926;-83
2024/01/07 05:07:02;;;;;;;;;;;;;;;2.42;85.11;100184.06;4997704;28;19940;-81
2024/01/07 05:09:29;;;;;;;;;;;;;;;2.40;85.22;100183.19;4997125;28;19929;-82
2024/01/07 05:11:56;;;;;;;;;;;;;;;2.42;85.35;100186.66;4998722;28;19972;-81
2024/01/07 05:14:22;;;;;;;;;;;;;;;2.44;85.53;100192.72;5003838;28;19933;-81
2024/01/07 05:16:49;;;;;;;;;;;;;;;2.40;85.74;100188.38;4998202;28;19932;-84
2024/01/07 05:19:16;;;;;;;;;;;;;;;2.41;85.20;100190.09;4998495;28;20005;-81
2024/01/07 05:21:42;;;;;;;;;;;;;;;2.41;85.24;100195.25;4998798;28;19983;-82
2024/01/07 05:24:09;;;;;;;;;;;;;;;2.42;85.23;100191.84;4997577;28;19930;-81
2024/01/07 05:26:39;;;;;;;;;;;;;;;2.41;85.31;100195.25;4998585;28;19926;-82
2024/01/07 05:29:06;;;;;;;;;;;;;;;2.42;85.08;100193.56;4998264;28;19984;-81
2024/01/07 05:31:32;;;;;;;;;;;;;;;2.42;85.22;100197.00;4998294;28;19926;-81
2024/01/07 05:33:59;;;;;;;;;;;;;;;2.42;84.94;100207.38;4997830;28;19926;-82
2024/01/07 05:36:26;;;;;;;;;;;;;;;2.41;85.13;100207.34;4997880;28;19980;-81
2024/01/07 05:38:53;;;;;;;;;;;;;;;2.40;85.18;100205.59;5000743;28;20336;-81
2024/01/07 05:41:20;;;;;;;;;;;;;;;2.39;85.22;100211.63;4998954;28;19926;-82
2024/01/07 05:43:46;;;;;;;;;;;;;;;2.39;85.16;100215.09;5002996;28;19925;-81
2024/01/07 05:46:13;;;;;;;;;;;;;;;2.39;85.49;100211.63;5000733;28;19933;-81
2024/01/07 05:48:44;;;;;;;;;;;;;;;2.37;85.55;100218.50;4997322;28;19958;-83
2024/01/07 05:51:11;;;;;;;;;;;;;;;2.38;85.46;100226.31;4996696;28;19978;-83
2024/01/07 05:53:37;;;;;;;;;;;;;;;2.38;85.46;100222.84;4993184;28;19933;-81
2024/01/07 05:56:04;;;;;;;;;;;;;;;2.36;85.60;100225.41;4996230;28;19925;-81
2024/01/07 05:58:31;;;;;;;;;;;;;;;2.37;85.71;100232.31;4988333;28;20020;-81
2024/01/07 06:00:57;;;;;;;;;;;;;;;2.38;85.44;100231.47;4996753;28;20017;-81
2024/01/07 06:03:24;;;;;;;;;;;;;;;2.37;85.36;100240.09;4993948;28;19925;-82
2024/01/07 06:05:51;;;;;;;;;;;;;;;2.36;85.62;100233.19;4994966;28;19933;-81
2024/01/07 06:08:18;;;;;;;;;;;;;;;2.37;85.60;100229.72;4991723;28;19930;-82
2024/01/07 06:10:44;;;;;;;;;;;;;;;2.37;85.35;100229.72;4997636;28;19980;-81
2024/01/07 06:13:11;;;;;;;;;;;;;;;2.37;85.50;100237.50;4994989;28;19929;-82
2024/01/07 06:15:38;;;;;;;;;;;;;;;2.39;85.54;100240.09;4995174;28;19926;-81
2024/01/07 06:18:04;;;;;;;;;;;;;;;2.38;85.46;100246.16;4995901;28;19980;-82
2024/01/07 06:20:31;;;;;;;;;;;;;;;2.38;85.41;100241.84;4996070;28;19941;-81
2024/01/07 06:22:58;;;;;;;;;;;;;;;2.39;85.31;100246.19;4996006;28;19926;-81
2024/01/07 06:25:26;;;;;;;;;;;;;;;2.38;85.68;100252.19;4991269;28;20416;-82
2024/01/07 06:27:52;;;;;;;;;;;;;;;2.40;85.42;100250.53;4986210;28;19933;-83
2024/01/07 06:30:19;;;;;;;;;;;;;;;2.39;85.34;100253.06;4993741;28;20016;-81
2024/01/07 06:32:47;;;;;;;;;;;;;;;2.38;85.71;100251.34;4991845;28;19937;-81
2024/01/07 06:35:15;;;;;;;;;;;;;;;2.39;85.38;100253.94;4992443;28;19933;-82
2024/01/07 06:37:41;;;;;;;;;;;;;;;2.40;85.64;100255.69;4989274;28;20012;-82
2024/01/07 06:40:08;;;;;;;;;;;;;;;2.40;85.90;100260.88;4991562;28;19934;-81
2024/01/07 06:42:36;;;;;;;;;;;;;;;2.42;85.75;100260.91;4994901;28;20009;-82
2024/01/07 06:45:03;;;;;;;;;;;;;;;2.41;85.88;100257.44;4995225;28;20003;-83
2024/01/07 06:47:30;;;;;;;;;;;;;;;2.42;86.03;100264.34;4995890;28;19925;-81
2024/01/07 06:49:59;;;;;;;;;;;;;;;2.41;86.17;100265.19;4995501;28;20000;-81
2024/01/07 06:52:27;;;;;;;;;;;;;;;2.43;86.05;100278.16;4998180;28;19930;-82
2024/01/07 06:54:53;;;;;;;;;;;;;;;2.45;85.95;100281.66;4995738;28;19929;-82
2024/01/07 06:57:20;;;;;;;;;;;;;;;2.45;86.16;100286.84;4996542;28;19960;-81
2024/01/07 06:59:46;;;;;;;;;;;;;;;2.46;86.12;100288.56;4992451;28;19929;-82
2024/01/07 07:02:13;;;;;;;;;;;;;;;2.47;86.15;100286.88;4990523;28;19933;-82
2024/01/07 07:04:40;;;;;;;;;;;;;;;2.50;86.09;100294.69;4996001;28;20005;-81
2024/01/07 07:07:06;;;;;;;;;;;;;;;2.51;86.26;100296.44;4996242;28;20304;-80
2024/01/07 07:09:34;;;;;;;;;;;;;;;2.51;85.98;100293.84;4957776;28;19926;-82
2024/01/07 07:12:01;;;;;;;;;;;;;;;2.53;86.59;100298.19;4937528;29;19927;-81
2024/01/07 07:14:27;;;;;;;;;;;;;;;2.50;86.42;100298.13;4939165;29;20009;-81
2024/01/07 07:16:54;;;;;;;;;;;;;;;2.51;86.26;100299.88;4938060;29;19926;-80
2024/01/07 07:19:20;;;;;;;;;;;;;;;2.52;86.12;100308.53;4941790;29;20025;-81
2024/01/07 07:21:47;;;;;;;;;;;;;;;2.51;86.06;100312.84;4945049;28;20304;-83
2024/01/07 07:24:14;;;;;;;;;;;;;;;2.52;86.25;100313.69;4941363;29;19933;-82
2024/01/07 07:26:40;;;;;;;;;;;;;;;2.53;86.30;100324.09;4933327;29;19927;-82
2024/01/07 07:29:09;;;;;;;;;;;;;;;2.51;86.25;100325.78;4945102;29;19946;-82
2024/01/07 07:31:36;;;;;;;;;;;;;;;2.51;86.50;100319.75;4937074;29;19934;-82
2024/01/07 07:34:03;;;;;;;;;;;;;;;2.53;86.36;100328.41;4935128;29;19935;-82
2024/01/07 07:36:30;;;;;;;;;;;;;;;2.55;86.75;100331.88;4936588;29;19934;-81
2024/01/07 07:38:57;;;;;;;;;;;;;;;2.53;86.86;100334.44;4936125;29;19989;-82
2024/01/07 07:41:24;;;;;;;;;;;;;;;2.53;87.11;100328.41;4937372;28;19927;-82
2024/01/07 07:43:50;;;;;;;;;;;;;;;2.53;86.79;100341.38;4958625;28;19933;-81
2024/01/07 07:46:17;;;;;;;;;;;;;;;2.54;87.08;100348.28;4953117;28;20029;-82
2024/01/07 07:48:44;;;;;;;;;;;;;;;2.54;87.34;100345.72;4962319;28;19932;-82
2024/01/07 07:51:10;;;;;;;;;;;;;;;2.53;87.20;100343.94;4964432;28;19927;-81
2024/01/07 07:53:40;;;;;;;;;;;;;;;2.54;87.12;100348.28;4953667;28;19926;-82
2024/01/07 07:56:08;;;;;;;;;;;;;;;2.54;87.54;100351.75;4954088;28;19934;-82
2024/01/07 07:58:35;;;;;;;;;;;;;;;2.55;87.50;100353.50;4953514;28;19927;-82
2024/01/07 08:01:01;;;;;;;;;;;;;;;2.57;87.25;100358.72;4953930;28;19926;-82
2024/01/07 08:03:28;;;;;;;;;;;;;;;2.57;87.65;100361.28;4952644;28;19926;-82
2024/01/07 08:05:55;;;;;;;;;;;;;;;2.56;87.60;100354.38;4960276;28;19981;-81
2024/01/07 08:08:22;;;;;;;;;;;;;;;2.57;87.51;100361.28;4958064;28;19942;-82
2024/01/07 08:10:48;;;;;;;;;;;;;;;2.56;87.64;100369.91;4955643;28;19926;-85
2024/01/07 08:13:15;;;;;;;;;;;;;;;2.59;87.54;100360.47;4954372;28;19926;-84
2024/01/07 08:15:42;;;;;;;;;;;;;;;2.59;86.91;100368.25;4948871;28;19973;-84
2024/01/07 08:18:09;;;;;;;;;;;;;;;2.56;86.59;100370.81;4950500;28;20002;-84
2024/01/07 08:20:36;;;;;;;;;;;;;;;2.55;86.66;100369.03;4947107;28;19958;-84
2024/01/07 08:23:02;;;;;;;;;;;;;;;2.55;87.05;100378.50;4943539;28;19927;-84
2024/01/07 08:25:29;;;;;;;;;;;;;;;2.53;86.90;100381.09;4944117;28;19960;-85
2024/01/07 08:27:56;;;;;;;;;;;;;;;2.53;87.14;100380.22;4944194;28;19961;-85
2024/01/07 08:30:23;;;;;;;;;;;;;;;2.52;87.15;100383.66;4942864;28;19926;-84
2024/01/07 08:32:50;;;;;;;;;;;;;;;2.51;86.98;100381.94;4950884;28;19934;-84
2024/01/07 08:35:17;;;;;;;;;;;;;;;2.49;86.84;100384.50;4951191;28;19933;-85
2024/01/07 08:37:46;;;;;;;;;;;;;;;2.51;87.04;100389.69;4947678;28;19934;-85
2024/01/07 08:40:13;;;;;;;;;;;;;;;2.49;87.06;100393.97;4944415;28;19927;-85
2024/01/07 08:42:41;;;;;;;;;;;;;;;2.51;87.03;100402.66;4957924;28;19926;-85
2024/01/07 08:45:07;;;;;;;;;;;;;;;2.50;86.88;100400.91;4953686;28;19933;-85
2024/01/07 08:47:35;;;;;;;;;;;;;;;2.46;86.87;100404.28;4949187;28;20338;-88
2024/01/07 08:50:08;;;;;;;;;;;;;;;2.43;86.26;100405.97;4945618;28;19930;-85
2024/01/07 08:52:35;;;;;;;;;;;;;;;2.41;86.31;100411.97;4950951;28;19996;-85
2024/01/07 08:55:02;;;;;;;;;;;;;;;2.41;86.43;100418.03;4966793;28;19930;-84
2024/01/07 08:57:29;;;;;;;;;;;;;;;2.38;85.99;100405.00;4952379;28;19949;-85
2024/01/07 08:59:56;;;;;;;;;;;;;;;2.39;86.56;100411.94;4949048;28;20023;-85
2024/01/07 09:02:23;;;;;;;;;;;;;;;2.36;86.32;100422.25;4941852;28;19969;-86
2024/01/07 09:04:50;;;;;;;;;;;;;;;2.34;86.22;100428.25;4961606;28;19926;-85
2024/01/07 09:07:16;;;;;;;;;;;;;;;2.33;86.20;100434.25;4949020;28;19934;-86
2024/01/07 09:09:43;;;;;;;;;;;;;;;2.34;85.86;100442.06;4949204;28;19934;-87
2024/01/07 09:12:10;;;;;;;;;;;;;;;2.34;85.31;100438.63;4950101;28;19926;-86
2024/01/07 09:14:37;;;;;;;;;;;;;;;2.31;85.14;100447.19;4960383;28;19926;-85
2024/01/07 09:17:04;;;;;;;;;;;;;;;2.32;85.41;100438.59;4952224;28;19937;-85
2024/01/07 09:19:30;;;;;;;;;;;;;;;2.29;84.59;100450.59;4953604;28;19926;-85
2024/01/07 09:21:57;;;;;;;;;;;;;;;2.28;85.14;100441.97;4952162;28;19926;-86
2024/01/07 09:24:24;;;;;;;;;;;;;;;2.21;83.93;100450.44;4954978;28;20017;-83
2024/01/07 09:26:51;;;;;;;;;;;;;;;2.20;83.42;100453.88;4959073;28;19926;-84
2024/01/07 09:29:17;;;;;;;;;;;;;;;2.18;84.00;100463.34;4970291;28;19926;-85
2024/01/07 09:31:44;;;;;;;;;;;;;;;2.19;83.69;100463.38;4948635;28;20400;-84
2024/01/07 09:34:11;;;;;;;;;;;;;;;2.17;83.72;100464.19;4932277;28;20350;-84
2024/01/07 09:36:38;;;;;;;;;;;;;;;2.15;83.75;100465.88;4960398;28;20339;-84
2024/01/07 09:39:05;;;;;;;;;;;;;;;2.16;83.65;100467.59;4952092;28;19927;-85
2024/01/07 09:41:32;;;;;;;;;;;;;;;2.17;83.31;100469.34;4948404;28;19964;-85
2024/01/07 09:43:59;;;;;;;;;;;;;;;2.14;83.77;100471.88;4949272;28;19981;-85
2024/01/07 09:46:26;;;;;;;;;;;;;;;2.20;83.56;100474.59;4962674;28;19930;-86
2024/01/07 09:48:53;;;;;;;;;;;;;;;2.15;83.04;100474.50;4962768;28;19933;-85
2024/01/07 09:51:21;;;;;;;;;;;;;;;2.17;83.11;100477.13;4947972;28;19926;-87
2024/01/07 09:53:48;;;;;;;;;;;;;;;2.26;82.89;100479.91;4965259;28;19927;-85
2024/01/07 09:56:18;;;;;;;;;;;;;;;2.19;82.65;100480.63;4966714;28;19926;-85
2024/01/07 09:58:47;;;;;;;;;;;;;;;2.16;82.28;100477.97;4951979;28;19934;-84
2024/01/07 10:01:15;;;;;;;;;;;;;;;2.19;82.66;100480.63;4959653;28;19971;-85
2024/01/07 10:03:42;;;;;;;;;;;;;;;2.14;82.03;100475.34;4947190;28;19926;-85
2024/01/07 10:06:10;;;;;;;;;;;;;;;2.15;81.97;100481.41;4949666;28;19926;-85
2024/01/07 10:08:37;;;;;;;;;;;;;;;2.18;82.16;100486.66;4946949;28;19982;-85
2024/01/07 10:11:04;;;;;;;;;;;;;;;2.17;82.22;100478.03;4957072;28;19927;-85
2024/01/07 10:13:32;;;;;;;;;;;;;;;2.15;82.07;100484.88;4960347;28;19935;-85
2024/01/07 10:15:58;;;;;;;;;;;;;;;2.17;81.79;100490.06;4947822;28;19978;-86
2024/01/07 10:18:25;;;;;;;;;;;;;;;2.16;81.52;100489.22;4952286;28;19930;-85
2024/01/07 10:20:54;;;;;;;;;;;;;;;2.09;81.00;100488.19;4954573;28;19966;-86
2024/01/07 10:23:20;;;;;;;;;;;;;;;2.13;81.29;100488.25;4947261;28;20037;-85
2024/01/07 10:25:47;;;;;;;;;;;;;;;2.17;81.06;100496.16;4959058;28;19933;-85
2024/01/07 10:28:14;;;;;;;;;;;;;;;2.09;80.78;100488.19;4952588;28;19926;-83
2024/01/07 10:30:42;;;;;;;;;;;;;;;2.05;80.54;100496.75;4951244;28;19930;-84
2024/01/07 10:33:08;;;;;;;;;;;;;;;2.07;80.65;100495.06;4920801;28;19926;-84
2024/01/07 10:35:36;;;;;;;;;;;;;;;2.15;81.30;100499.53;4963024;28;19933;-85
2024/01/07 10:38:03;;;;;;;;;;;;;;;2.04;80.02;100495.00;4945455;28;19927;-84
2024/01/07 10:40:30;;;;;;;;;;;;;;;1.99;79.42;100499.22;4954327;28;19942;-85
2024/01/07 10:42:57;;;;;;;;;;;;;;;1.98;79.68;100497.47;4948620;28;19977;-83
2024/01/07 10:45:24;;;;;;;;;;;;;;;1.94;79.15;100497.38;4951250;28;19973;-85
2024/01/07 10:47:54;;;;;;;;;;;;;;;1.93;79.52;100506.84;4957123;28;19985;-86
2024/01/07 10:50:21;;;;;;;;;;;;;;;2.02;80.11;100501.84;4967730;28;19931;-86
2024/01/07 10:52:55;;;;;;;;;;;;;;;1.92;79.28;100508.56;4955021;28;19926;-85
2024/01/07 10:55:22;;;;;;;;;;;;;;;1.84;78.85;100514.41;4948094;28;19935;-85
2024/01/07 10:57:49;;;;;;;;;;;;;;;1.91;79.14;100509.41;4933725;29;19981;-84
2024/01/07 11:00:20;;;;;;;;;;;;;;;1.85;78.59;100513.56;4961226;28;19948;-84
2024/01/07 11:02:53;;;;;;;;;;;;;;;1.88;78.93;100522.28;4946800;28;19932;-84
2024/01/07 11:05:27;;;;;;;;;;;;;;;1.84;78.40;100523.06;4953456;28;19930;-86
2024/01/07 11:08:14;;;;;;;;;;;;;;;1.88;78.45;100524.00;4942481;28;19998;-84
2024/01/07 11:10:50;;;;;;;;;;;;;;;1.83;78.16;100525.63;4940856;28;19932;-85
2024/01/07 11:13:34;;;;;;;;;;;;;;;1.87;78.54;100522.25;4943484;28;20406;-85
2024/01/07 11:16:01;;;;;;;;;;;;;;;1.80;78.36;100525.56;4950923;28;20361;-86
2024/01/07 11:18:33;;;;;;;;;;;;;;;1.81;78.48;100523.00;4949037;28;19926;-84
2024/01/07 11:21:03;;;;;;;;;;;;;;;1.80;78.05;100525.56;4948535;28;19941;-84
2024/01/07 11:23:32;;;;;;;;;;;;;;;1.86;78.85;100525.69;4965196;28;19933;-85
2024/01/07 11:26:00;;;;;;;;;;;;;;;1.92;79.11;100531.84;4949209;28;19927;-85
2024/01/07 11:28:42;;;;;;;;;;;;;;;1.90;78.15;100519.75;4949669;28;19938;-84
2024/01/07 11:31:11;;;;;;;;;;;;;;;1.99;78.52;100524.25;4950039;28;19926;-85
2024/01/07 11:33:38;;;;;;;;;;;;;;;1.93;77.49;100527.56;4946622;28;19978;-84
2024/01/07 11:36:05;;;;;;;;;;;;;;;1.87;76.51;100522.25;4945521;28;20042;-84
2024/01/07 11:38:33;;;;;;;;;;;;;;;2.00;77.16;100534.63;4953564;28;19946;-85
2024/01/07 11:41:00;;;;;;;;;;;;;;;1.94;76.83;100538.78;4948654;28;19930;-84
2024/01/07 11:43:27;;;;;;;;;;;;;;;1.91;76.73;100532.72;4951020;28;20018;-86
2024/01/07 11:45:54;;;;;;;;;;;;;;;1.92;76.75;100536.16;4956184;28;19984;-84
2024/01/07 11:48:21;;;;;;;;;;;;;;;2.02;77.68;100538.09;4952019;28;20017;-84
2024/01/07 11:50:48;;;;;;;;;;;;;;;1.89;76.99;100530.91;4950746;28;19926;-84
2024/01/07 11:53:18;;;;;;;;;;;;;;;1.95;76.87;100538.81;4950862;28;19942;-84
2024/01/07 11:55:45;;;;;;;;;;;;;;;1.91;75.78;100537.00;4946782;28;19933;-84
2024/01/07 11:58:12;;;;;;;;;;;;;;;1.98;75.80;100538.00;4949104;28;19935;-86
2024/01/07 12:00:39;;;;;;;;;;;;;;;2.00;76.34;100537.22;4950515;28;19933;-85
2024/01/07 12:03:05;;;;;;;;;;;;;;;2.04;75.52;100536.44;4950015;28;19930;-85
2024/01/07 12:05:32;;;;;;;;;;;;;;;2.11;75.94;100526.19;4960152;28;20009;-85
2024/01/07 12:08:00;;;;;;;;;;;;;;;2.09;75.50;100531.34;4951080;28;19976;-84
2024/01/07 12:10:26;;;;;;;;;;;;;;;2.07;75.38;100530.44;4949864;28;19938;-84
2024/01/07 12:12:53;;;;;;;;;;;;;;;2.05;75.21;100532.97;4949778;28;19930;-84
2024/01/07 12:15:20;;;;;;;;;;;;;;;2.09;74.76;100533.94;4951352;28;19932;-84
2024/01/07 12:17:57;;;;;;;;;;;;;;;2.06;74.13;100539.91;4946310;28;19934;-85
2024/01/07 12:20:24;;;;;;;;;;;;;;;2.21;75.64;100538.50;4948296;28;20037;-84
2024/01/07 12:22:51;;;;;;;;;;;;;;;1.99;73.90;100538.03;4948515;28;20418;-85
2024/01/07 12:25:21;;;;;;;;;;;;;;;2.09;74.71;100545.16;4952968;28;19968;-85
2024/01/07 12:27:52;;;;;;;;;;;;;;;2.03;75.23;100536.41;4955131;28;19933;-84
2024/01/07 12:30:19;;;;;;;;;;;;;;;2.10;75.97;100546.06;4968620;28;19926;-85
2024/01/07 12:32:46;;;;;;;;;;;;;;;2.01;76.25;100549.28;4949920;28;20114;-87
2024/01/07 12:35:13;;;;;;;;;;;;;;;2.00;75.97;100544.97;4951435;28;19934;-85
2024/01/07 12:37:40;;;;;;;;;;;;;;;1.96;75.10;100558.69;4956714;28;19926;-84
2024/01/07 12:40:09;;;;;;;;;;;;;;;1.93;74.76;100545.69;4949233;28;20042;-84
2024/01/07 12:42:37;;;;;;;;;;;;;;;2.05;75.58;100552.84;4955082;28;19961;-85
2024/01/07 12:45:04;;;;;;;;;;;;;;;1.97;75.28;100550.09;4965646;28;19927;-83
2024/01/07 12:47:30;;;;;;;;;;;;;;;1.94;74.78;100550.03;4950463;28;19927;-85